sensor_id;sensor_type;location;lat;lon;timestamp;P1;durP1;ratioP1;P2;durP2;ratioP2
16979;SDS011;42288;52.182;21.156;2023-02-03T00:01:45;8.57;;;4.63;;
16979;SDS011;42288;52.182;21.156;2023-02-03T00:04:11;7.90;;;4.40;;
16979;SDS011;42288;52.182;21.156;2023-02-03T00:06:37;10.70;;;4.70;;
16979;SDS011;42288;52.182;21.156;2023-02-03T00:09:03;6.93;;;4.67;;
16979;SDS011;42288;52.182;21.156;2023-02-03T00:11:29;9.83;;;4.70;;
16979;SDS011;42288;52.182;21.156;2023-02-03T00:13:55;10.03;;;5.37;;
16979;SDS011;42288;52.182;21.156;2023-02-03T00:16:20;9.43;;;4.73;;
16979;SDS011;42288;52.182;21.156;2023-02-03T00:18:46;9.70;;;4.63;;
16979;SDS011;42288;52.182;21.156;2023-02-03T00:21:11;9.53;;;5.37;;
16979;SDS011;42288;52.182;21.156;2023-02-03T00:23:39;11.70;;;5.30;;
16979;SDS011;42288;52.182;21.156;2023-02-03T00:26:05;10.40;;;4.73;;
16979;SDS011;42288;52.182;21.156;2023-02-03T00:28:32;12.60;;;5.60;;
16979;SDS011;42288;52.182;21.156;2023-02-03T00:30:57;11.47;;;6.00;;
16979;SDS011;42288;52.182;21.156;2023-02-03T00:33:23;11.10;;;4.50;;
16979;SDS011;42288;52.182;21.156;2023-02-03T00:35:49;9.30;;;5.27;;
16979;SDS011;42288;52.182;21.156;2023-02-03T00:38:14;8.07;;;4.53;;
16979;SDS011;42288;52.182;21.156;2023-02-03T00:40:40;8.93;;;4.37;;
16979;SDS011;42288;52.182;21.156;2023-02-03T00:43:05;8.93;;;4.53;;
16979;SDS011;42288;52.182;21.156;2023-02-03T00:45:31;9.00;;;4.63;;
16979;SDS011;42288;52.182;21.156;2023-02-03T00:47:56;10.47;;;4.27;;
16979;SDS011;42288;52.182;21.156;2023-02-03T00:50:22;8.63;;;4.17;;
16979;SDS011;42288;52.182;21.156;2023-02-03T00:52:47;9.30;;;4.33;;
16979;SDS011;42288;52.182;21.156;2023-02-03T00:55:13;9.70;;;4.43;;
16979;SDS011;42288;52.182;21.156;2023-02-03T00:57:38;6.70;;;3.63;;
16979;SDS011;42288;52.182;21.156;2023-02-03T01:00:04;6.40;;;3.53;;
16979;SDS011;42288;52.182;21.156;2023-02-03T01:02:30;7.73;;;3.90;;
16979;SDS011;42288;52.182;21.156;2023-02-03T01:04:56;7.50;;;3.50;;
16979;SDS011;42288;52.182;21.156;2023-02-03T01:07:22;9.77;;;4.93;;
16979;SDS011;42288;52.182;21.156;2023-02-03T01:09:47;11.03;;;5.03;;
16979;SDS011;42288;52.182;21.156;2023-02-03T01:12:13;7.37;;;3.97;;
16979;SDS011;42288;52.182;21.156;2023-02-03T01:14:38;11.53;;;3.83;;
16979;SDS011;42288;52.182;21.156;2023-02-03T01:17:04;10.00;;;3.50;;
16979;SDS011;42288;52.182;21.156;2023-02-03T01:19:29;6.13;;;3.40;;
16979;SDS011;42288;52.182;21.156;2023-02-03T01:21:55;7.33;;;3.40;;
16979;SDS011;42288;52.182;21.156;2023-02-03T01:24:20;6.20;;;3.07;;
16979;SDS011;42288;52.182;21.156;2023-02-03T01:26:46;7.40;;;3.30;;
16979;SDS011;42288;52.182;21.156;2023-02-03T01:29:11;7.73;;;3.30;;
16979;SDS011;42288;52.182;21.156;2023-02-03T01:31:39;6.50;;;3.37;;
16979;SDS011;42288;52.182;21.156;2023-02-03T01:34:06;5.97;;;3.07;;
16979;SDS011;42288;52.182;21.156;2023-02-03T01:36:36;8.47;;;3.10;;
16979;SDS011;42288;52.182;21.156;2023-02-03T01:39:02;5.30;;;3.00;;
16979;SDS011;42288;52.182;21.156;2023-02-03T01:41:30;5.90;;;2.57;;
16979;SDS011;42288;52.182;21.156;2023-02-03T01:43:58;4.70;;;2.97;;
16979;SDS011;42288;52.182;21.156;2023-02-03T01:46:29;5.93;;;2.80;;
16979;SDS011;42288;52.182;21.156;2023-02-03T01:51:42;7.67;;;2.93;;
16979;SDS011;42288;52.182;21.156;2023-02-03T01:54:10;4.43;;;2.47;;
16979;SDS011;42288;52.182;21.156;2023-02-03T01:56:41;7.87;;;2.87;;
16979;SDS011;42288;52.182;21.156;2023-02-03T01:59:15;5.97;;;2.77;;
16979;SDS011;42288;52.182;21.156;2023-02-03T02:01:42;6.80;;;2.60;;
16979;SDS011;42288;52.182;21.156;2023-02-03T02:04:09;4.53;;;2.50;;
16979;SDS011;42288;52.182;21.156;2023-02-03T02:06:35;7.33;;;2.73;;
16979;SDS011;42288;52.182;21.156;2023-02-03T02:09:00;7.47;;;3.13;;
16979;SDS011;42288;52.182;21.156;2023-02-03T02:11:28;5.07;;;2.57;;
16979;SDS011;42288;52.182;21.156;2023-02-03T02:13:54;4.63;;;2.80;;
16979;SDS011;42288;52.182;21.156;2023-02-03T02:24:36;4.47;;;2.87;;
16979;SDS011;42288;52.182;21.156;2023-02-03T02:33:00;10.17;;;3.10;;
16979;SDS011;42288;52.182;21.156;2023-02-03T02:46:09;4.90;;;2.40;;
16979;SDS011;42288;52.182;21.156;2023-02-03T02:48:40;8.53;;;3.10;;
16979;SDS011;42288;52.182;21.156;2023-02-03T02:51:10;6.20;;;2.90;;
16979;SDS011;42288;52.182;21.156;2023-02-03T02:53:39;6.17;;;2.70;;
16979;SDS011;42288;52.182;21.156;2023-02-03T02:56:10;7.47;;;2.73;;
16979;SDS011;42288;52.182;21.156;2023-02-03T02:58:39;4.83;;;2.50;;
16979;SDS011;42288;52.182;21.156;2023-02-03T03:01:08;5.90;;;2.70;;
16979;SDS011;42288;52.182;21.156;2023-02-03T03:03:33;4.57;;;2.70;;
16979;SDS011;42288;52.182;21.156;2023-02-03T03:06:03;6.33;;;2.83;;
16979;SDS011;42288;52.182;21.156;2023-02-03T03:08:34;4.43;;;2.60;;
16979;SDS011;42288;52.182;21.156;2023-02-03T03:11:04;4.60;;;2.60;;
16979;SDS011;42288;52.182;21.156;2023-02-03T03:13:31;4.60;;;2.30;;
16979;SDS011;42288;52.182;21.156;2023-02-03T03:16:02;4.40;;;2.10;;
16979;SDS011;42288;52.182;21.156;2023-02-03T03:18:35;4.57;;;1.90;;
16979;SDS011;42288;52.182;21.156;2023-02-03T03:21:07;5.00;;;2.00;;
16979;SDS011;42288;52.182;21.156;2023-02-03T03:23:37;4.00;;;2.00;;
16979;SDS011;42288;52.182;21.156;2023-02-03T03:26:17;4.93;;;2.30;;
16979;SDS011;42288;52.182;21.156;2023-02-03T03:29:02;6.20;;;2.40;;
16979;SDS011;42288;52.182;21.156;2023-02-03T03:31:37;6.07;;;2.40;;
16979;SDS011;42288;52.182;21.156;2023-02-03T03:34:04;4.57;;;2.50;;
16979;SDS011;42288;52.182;21.156;2023-02-03T03:36:36;4.03;;;1.97;;
16979;SDS011;42288;52.182;21.156;2023-02-03T03:39:11;5.97;;;3.00;;
16979;SDS011;42288;52.182;21.156;2023-02-03T03:41:49;7.17;;;3.00;;
16979;SDS011;42288;52.182;21.156;2023-02-03T03:44:26;5.03;;;2.40;;
16979;SDS011;42288;52.182;21.156;2023-02-03T03:47:05;7.67;;;3.40;;
16979;SDS011;42288;52.182;21.156;2023-02-03T03:49:33;7.63;;;2.97;;
16979;SDS011;42288;52.182;21.156;2023-02-03T03:52:02;6.47;;;2.87;;
16979;SDS011;42288;52.182;21.156;2023-02-03T03:54:31;8.17;;;2.97;;
16979;SDS011;42288;52.182;21.156;2023-02-03T03:57:00;7.47;;;2.83;;
16979;SDS011;42288;52.182;21.156;2023-02-03T03:59:35;8.80;;;3.50;;
16979;SDS011;42288;52.182;21.156;2023-02-03T04:02:03;8.60;;;3.20;;
16979;SDS011;42288;52.182;21.156;2023-02-03T04:04:29;5.27;;;2.93;;
16979;SDS011;42288;52.182;21.156;2023-02-03T04:06:57;7.67;;;3.23;;
16979;SDS011;42288;52.182;21.156;2023-02-03T04:09:22;10.97;;;3.80;;
16979;SDS011;42288;52.182;21.156;2023-02-03T04:11:48;5.70;;;3.47;;
16979;SDS011;42288;52.182;21.156;2023-02-03T04:14:26;6.97;;;3.73;;
16979;SDS011;42288;52.182;21.156;2023-02-03T04:16:59;7.00;;;3.70;;
16979;SDS011;42288;52.182;21.156;2023-02-03T04:19:25;7.07;;;3.40;;
16979;SDS011;42288;52.182;21.156;2023-02-03T04:21:51;8.67;;;4.10;;
16979;SDS011;42288;52.182;21.156;2023-02-03T04:24:17;8.40;;;4.00;;
16979;SDS011;42288;52.182;21.156;2023-02-03T04:26:42;7.50;;;4.57;;
16979;SDS011;42288;52.182;21.156;2023-02-03T04:29:08;10.73;;;4.70;;
16979;SDS011;42288;52.182;21.156;2023-02-03T04:31:34;10.83;;;4.50;;
16979;SDS011;42288;52.182;21.156;2023-02-03T04:33:59;7.67;;;4.50;;
16979;SDS011;42288;52.182;21.156;2023-02-03T04:36:25;8.83;;;4.30;;
16979;SDS011;42288;52.182;21.156;2023-02-03T04:38:51;8.23;;;4.87;;
16979;SDS011;42288;52.182;21.156;2023-02-03T04:41:16;7.90;;;4.50;;
16979;SDS011;42288;52.182;21.156;2023-02-03T04:43:42;10.30;;;5.03;;
16979;SDS011;42288;52.182;21.156;2023-02-03T04:46:08;10.63;;;4.90;;
16979;SDS011;42288;52.182;21.156;2023-02-03T04:48:34;7.30;;;4.80;;
16979;SDS011;42288;52.182;21.156;2023-02-03T04:51:00;10.20;;;5.53;;
16979;SDS011;42288;52.182;21.156;2023-02-03T04:53:27;10.17;;;4.77;;
16979;SDS011;42288;52.182;21.156;2023-02-03T04:55:53;9.10;;;5.00;;
16979;SDS011;42288;52.182;21.156;2023-02-03T04:58:18;7.87;;;4.80;;
16979;SDS011;42288;52.182;21.156;2023-02-03T05:00:44;10.07;;;4.77;;
16979;SDS011;42288;52.182;21.156;2023-02-03T05:03:09;9.60;;;4.40;;
16979;SDS011;42288;52.182;21.156;2023-02-03T05:05:35;10.60;;;4.80;;
16979;SDS011;42288;52.182;21.156;2023-02-03T05:08:00;10.57;;;5.10;;
16979;SDS011;42288;52.182;21.156;2023-02-03T05:10:26;9.10;;;4.70;;
16979;SDS011;42288;52.182;21.156;2023-02-03T05:12:52;7.30;;;4.53;;
16979;SDS011;42288;52.182;21.156;2023-02-03T05:15:17;11.83;;;5.23;;
16979;SDS011;42288;52.182;21.156;2023-02-03T05:17:43;10.70;;;5.40;;
16979;SDS011;42288;52.182;21.156;2023-02-03T05:20:08;8.83;;;4.77;;
16979;SDS011;42288;52.182;21.156;2023-02-03T05:22:34;10.07;;;5.27;;
16979;SDS011;42288;52.182;21.156;2023-02-03T05:25:01;10.57;;;5.30;;
16979;SDS011;42288;52.182;21.156;2023-02-03T05:27:27;10.50;;;5.10;;
16979;SDS011;42288;52.182;21.156;2023-02-03T05:29:52;12.17;;;6.27;;
16979;SDS011;42288;52.182;21.156;2023-02-03T05:32:18;12.53;;;6.43;;
16979;SDS011;42288;52.182;21.156;2023-02-03T05:34:44;11.63;;;5.70;;
16979;SDS011;42288;52.182;21.156;2023-02-03T05:37:09;13.73;;;6.37;;
16979;SDS011;42288;52.182;21.156;2023-02-03T05:39:35;10.77;;;5.03;;
16979;SDS011;42288;52.182;21.156;2023-02-03T05:42:00;12.97;;;5.73;;
16979;SDS011;42288;52.182;21.156;2023-02-03T05:44:27;10.50;;;6.07;;
16979;SDS011;42288;52.182;21.156;2023-02-03T05:46:54;13.13;;;5.83;;
16979;SDS011;42288;52.182;21.156;2023-02-03T05:49:20;12.00;;;5.80;;
16979;SDS011;42288;52.182;21.156;2023-02-03T05:51:53;9.73;;;5.50;;
16979;SDS011;42288;52.182;21.156;2023-02-03T05:54:19;11.53;;;5.80;;
16979;SDS011;42288;52.182;21.156;2023-02-03T05:56:45;12.27;;;5.43;;
16979;SDS011;42288;52.182;21.156;2023-02-03T05:59:11;10.80;;;5.73;;
16979;SDS011;42288;52.182;21.156;2023-02-03T06:01:36;11.37;;;4.97;;
16979;SDS011;42288;52.182;21.156;2023-02-03T06:04:02;11.47;;;5.23;;
16979;SDS011;42288;52.182;21.156;2023-02-03T06:06:28;8.50;;;5.23;;
16979;SDS011;42288;52.182;21.156;2023-02-03T06:09:00;11.77;;;5.63;;
16979;SDS011;42288;52.182;21.156;2023-02-03T06:11:28;12.80;;;5.40;;
16979;SDS011;42288;52.182;21.156;2023-02-03T06:13:54;11.20;;;5.20;;
16979;SDS011;42288;52.182;21.156;2023-02-03T06:16:22;10.73;;;5.53;;
16979;SDS011;42288;52.182;21.156;2023-02-03T06:18:49;13.23;;;6.20;;
16979;SDS011;42288;52.182;21.156;2023-02-03T06:21:18;17.30;;;9.27;;
16979;SDS011;42288;52.182;21.156;2023-02-03T06:23:44;21.47;;;11.03;;
16979;SDS011;42288;52.182;21.156;2023-02-03T06:26:10;25.50;;;12.30;;
16979;SDS011;42288;52.182;21.156;2023-02-03T06:28:36;52.80;;;24.57;;
16979;SDS011;42288;52.182;21.156;2023-02-03T06:31:04;57.30;;;26.53;;
16979;SDS011;42288;52.182;21.156;2023-02-03T06:33:30;60.70;;;27.97;;
16979;SDS011;42288;52.182;21.156;2023-02-03T06:35:56;60.30;;;30.00;;
16979;SDS011;42288;52.182;21.156;2023-02-03T06:38:22;62.57;;;30.63;;
16979;SDS011;42288;52.182;21.156;2023-02-03T06:40:48;63.43;;;31.77;;
16979;SDS011;42288;52.182;21.156;2023-02-03T06:43:13;63.30;;;31.07;;
16979;SDS011;42288;52.182;21.156;2023-02-03T06:45:39;37.40;;;17.30;;
16979;SDS011;42288;52.182;21.156;2023-02-03T06:48:05;38.33;;;19.20;;
16979;SDS011;42288;52.182;21.156;2023-02-03T06:50:31;17.10;;;8.50;;
16979;SDS011;42288;52.182;21.156;2023-02-03T06:52:57;10.33;;;6.30;;
16979;SDS011;42288;52.182;21.156;2023-02-03T06:55:23;12.67;;;6.00;;
16979;SDS011;42288;52.182;21.156;2023-02-03T06:57:48;14.77;;;5.60;;
16979;SDS011;42288;52.182;21.156;2023-02-03T07:00:15;10.77;;;5.90;;
16979;SDS011;42288;52.182;21.156;2023-02-03T07:02:41;10.37;;;5.50;;
16979;SDS011;42288;52.182;21.156;2023-02-03T07:05:07;12.27;;;6.00;;
16979;SDS011;42288;52.182;21.156;2023-02-03T07:07:33;12.17;;;5.30;;
16979;SDS011;42288;52.182;21.156;2023-02-03T07:10:00;11.37;;;5.67;;
16979;SDS011;42288;52.182;21.156;2023-02-03T07:12:26;10.30;;;5.37;;
16979;SDS011;42288;52.182;21.156;2023-02-03T07:14:52;16.37;;;6.10;;
16979;SDS011;42288;52.182;21.156;2023-02-03T07:17:19;11.43;;;5.53;;
16979;SDS011;42288;52.182;21.156;2023-02-03T07:19:44;13.13;;;6.57;;
16979;SDS011;42288;52.182;21.156;2023-02-03T07:22:10;22.07;;;7.83;;
16979;SDS011;42288;52.182;21.156;2023-02-03T07:24:35;20.33;;;8.23;;
16979;SDS011;42288;52.182;21.156;2023-02-03T07:27:01;21.20;;;8.63;;
16979;SDS011;42288;52.182;21.156;2023-02-03T07:29:27;21.63;;;10.00;;
16979;SDS011;42288;52.182;21.156;2023-02-03T07:31:53;15.87;;;6.60;;
16979;SDS011;42288;52.182;21.156;2023-02-03T07:34:18;16.23;;;7.43;;
16979;SDS011;42288;52.182;21.156;2023-02-03T07:36:44;13.37;;;5.57;;
16979;SDS011;42288;52.182;21.156;2023-02-03T07:39:09;13.23;;;5.83;;
16979;SDS011;42288;52.182;21.156;2023-02-03T07:41:35;12.60;;;5.20;;
16979;SDS011;42288;52.182;21.156;2023-02-03T07:44:01;14.90;;;5.57;;
16979;SDS011;42288;52.182;21.156;2023-02-03T07:46:26;15.07;;;6.00;;
16979;SDS011;42288;52.182;21.156;2023-02-03T07:48:52;12.00;;;6.10;;
16979;SDS011;42288;52.182;21.156;2023-02-03T07:51:18;12.77;;;5.83;;
16979;SDS011;42288;52.182;21.156;2023-02-03T07:53:44;11.93;;;5.20;;
16979;SDS011;42288;52.182;21.156;2023-02-03T07:56:10;10.70;;;5.07;;
16979;SDS011;42288;52.182;21.156;2023-02-03T07:58:36;13.67;;;5.70;;
16979;SDS011;42288;52.182;21.156;2023-02-03T08:01:08;12.00;;;5.37;;
16979;SDS011;42288;52.182;21.156;2023-02-03T08:03:35;10.90;;;5.07;;
16979;SDS011;42288;52.182;21.156;2023-02-03T08:06:01;8.50;;;4.53;;
16979;SDS011;42288;52.182;21.156;2023-02-03T08:08:26;12.67;;;5.10;;
16979;SDS011;42288;52.182;21.156;2023-02-03T08:10:53;11.30;;;4.77;;
16979;SDS011;42288;52.182;21.156;2023-02-03T08:13:20;10.60;;;4.60;;
16979;SDS011;42288;52.182;21.156;2023-02-03T08:15:46;11.73;;;4.60;;
16979;SDS011;42288;52.182;21.156;2023-02-03T08:18:12;9.97;;;4.97;;
16979;SDS011;42288;52.182;21.156;2023-02-03T08:20:38;11.13;;;4.97;;
16979;SDS011;42288;52.182;21.156;2023-02-03T08:23:03;12.57;;;4.53;;
16979;SDS011;42288;52.182;21.156;2023-02-03T08:25:32;10.50;;;5.20;;
16979;SDS011;42288;52.182;21.156;2023-02-03T08:27:57;12.83;;;5.10;;
16979;SDS011;42288;52.182;21.156;2023-02-03T08:30:23;10.27;;;4.17;;
16979;SDS011;42288;52.182;21.156;2023-02-03T08:32:49;12.17;;;5.00;;
16979;SDS011;42288;52.182;21.156;2023-02-03T08:35:15;13.00;;;4.50;;
16979;SDS011;42288;52.182;21.156;2023-02-03T08:37:41;9.53;;;4.80;;
16979;SDS011;42288;52.182;21.156;2023-02-03T08:40:07;9.23;;;4.13;;
16979;SDS011;42288;52.182;21.156;2023-02-03T08:42:33;8.60;;;4.10;;
16979;SDS011;42288;52.182;21.156;2023-02-03T08:44:59;12.50;;;3.90;;
16979;SDS011;42288;52.182;21.156;2023-02-03T08:47:24;8.90;;;3.90;;
16979;SDS011;42288;52.182;21.156;2023-02-03T08:49:50;8.00;;;4.03;;
16979;SDS011;42288;52.182;21.156;2023-02-03T08:52:16;9.33;;;3.70;;
16979;SDS011;42288;52.182;21.156;2023-02-03T08:54:41;8.60;;;3.57;;
16979;SDS011;42288;52.182;21.156;2023-02-03T08:57:07;8.37;;;3.67;;
16979;SDS011;42288;52.182;21.156;2023-02-03T08:59:34;7.53;;;3.57;;
16979;SDS011;42288;52.182;21.156;2023-02-03T09:02:02;10.63;;;4.30;;
16979;SDS011;42288;52.182;21.156;2023-02-03T09:04:28;14.70;;;3.80;;
16979;SDS011;42288;52.182;21.156;2023-02-03T09:06:54;8.63;;;4.20;;
16979;SDS011;42288;52.182;21.156;2023-02-03T09:09:20;9.47;;;3.70;;
16979;SDS011;42288;52.182;21.156;2023-02-03T09:11:47;15.17;;;5.87;;
16979;SDS011;42288;52.182;21.156;2023-02-03T09:14:12;12.97;;;5.43;;
16979;SDS011;42288;52.182;21.156;2023-02-03T09:16:39;13.20;;;5.43;;
16979;SDS011;42288;52.182;21.156;2023-02-03T09:19:04;10.30;;;4.43;;
16979;SDS011;42288;52.182;21.156;2023-02-03T09:21:30;7.07;;;3.70;;
16979;SDS011;42288;52.182;21.156;2023-02-03T09:23:59;7.57;;;3.60;;
16979;SDS011;42288;52.182;21.156;2023-02-03T09:26:28;6.93;;;3.70;;
16979;SDS011;42288;52.182;21.156;2023-02-03T09:28:54;9.50;;;3.60;;
16979;SDS011;42288;52.182;21.156;2023-02-03T09:31:19;7.97;;;3.63;;
16979;SDS011;42288;52.182;21.156;2023-02-03T09:33:45;7.10;;;3.27;;
16979;SDS011;42288;52.182;21.156;2023-02-03T09:36:11;7.93;;;3.40;;
16979;SDS011;42288;52.182;21.156;2023-02-03T09:38:37;9.10;;;3.83;;
16979;SDS011;42288;52.182;21.156;2023-02-03T09:43:36;10.33;;;4.70;;
16979;SDS011;42288;52.182;21.156;2023-02-03T09:48:46;10.73;;;4.67;;
16979;SDS011;42288;52.182;21.156;2023-02-03T09:51:27;13.40;;;4.47;;
16979;SDS011;42288;52.182;21.156;2023-02-03T09:54:04;7.20;;;3.57;;
16979;SDS011;42288;52.182;21.156;2023-02-03T09:56:37;7.97;;;3.33;;
16979;SDS011;42288;52.182;21.156;2023-02-03T09:59:04;6.37;;;3.33;;
16979;SDS011;42288;52.182;21.156;2023-02-03T10:01:45;8.53;;;3.47;;
16979;SDS011;42288;52.182;21.156;2023-02-03T10:04:37;8.10;;;3.67;;
16979;SDS011;42288;52.182;21.156;2023-02-03T10:10:16;11.43;;;3.30;;
16979;SDS011;42288;52.182;21.156;2023-02-03T10:15:20;9.47;;;3.27;;
16979;SDS011;42288;52.182;21.156;2023-02-03T10:17:53;5.97;;;2.67;;
16979;SDS011;42288;52.182;21.156;2023-02-03T10:20:25;5.83;;;2.90;;
16979;SDS011;42288;52.182;21.156;2023-02-03T10:23:01;5.23;;;2.57;;
16979;SDS011;42288;52.182;21.156;2023-02-03T10:25:41;4.67;;;1.90;;
16979;SDS011;42288;52.182;21.156;2023-02-03T10:28:14;4.40;;;2.20;;
16979;SDS011;42288;52.182;21.156;2023-02-03T10:30:44;4.20;;;2.20;;
16979;SDS011;42288;52.182;21.156;2023-02-03T10:33:14;4.30;;;1.63;;
16979;SDS011;42288;52.182;21.156;2023-02-03T10:38:22;4.63;;;1.93;;
16979;SDS011;42288;52.182;21.156;2023-02-03T10:40:58;3.17;;;1.80;;
16979;SDS011;42288;52.182;21.156;2023-02-03T10:43:24;6.27;;;2.20;;
16979;SDS011;42288;52.182;21.156;2023-02-03T10:46:11;4.43;;;2.13;;
16979;SDS011;42288;52.182;21.156;2023-02-03T10:48:40;3.73;;;2.10;;
16979;SDS011;42288;52.182;21.156;2023-02-03T10:51:25;7.83;;;2.20;;
16979;SDS011;42288;52.182;21.156;2023-02-03T10:53:59;4.00;;;1.93;;
16979;SDS011;42288;52.182;21.156;2023-02-03T10:56:25;5.67;;;2.27;;
16979;SDS011;42288;52.182;21.156;2023-02-03T10:59:00;4.20;;;2.17;;
16979;SDS011;42288;52.182;21.156;2023-02-03T11:01:27;3.23;;;2.00;;
16979;SDS011;42288;52.182;21.156;2023-02-03T11:04:05;5.23;;;2.27;;
16979;SDS011;42288;52.182;21.156;2023-02-03T11:06:33;3.47;;;1.67;;
16979;SDS011;42288;52.182;21.156;2023-02-03T11:09:00;4.63;;;2.43;;
16979;SDS011;42288;52.182;21.156;2023-02-03T11:11:27;4.87;;;1.93;;
16979;SDS011;42288;52.182;21.156;2023-02-03T11:16:36;4.80;;;1.80;;
16979;SDS011;42288;52.182;21.156;2023-02-03T11:19:09;5.07;;;1.90;;
16979;SDS011;42288;52.182;21.156;2023-02-03T11:21:41;5.00;;;1.97;;
16979;SDS011;42288;52.182;21.156;2023-02-03T11:26:46;6.77;;;2.67;;
16979;SDS011;42288;52.182;21.156;2023-02-03T11:29:22;6.37;;;2.40;;
16979;SDS011;42288;52.182;21.156;2023-02-03T11:31:53;5.77;;;2.40;;
16979;SDS011;42288;52.182;21.156;2023-02-03T11:34:22;5.00;;;2.27;;
16979;SDS011;42288;52.182;21.156;2023-02-03T11:36:53;6.30;;;3.00;;
16979;SDS011;42288;52.182;21.156;2023-02-03T11:39:28;8.77;;;2.53;;
16979;SDS011;42288;52.182;21.156;2023-02-03T11:42:01;5.17;;;2.77;;
16979;SDS011;42288;52.182;21.156;2023-02-03T11:44:33;5.20;;;2.23;;
16979;SDS011;42288;52.182;21.156;2023-02-03T11:47:00;5.47;;;2.30;;
16979;SDS011;42288;52.182;21.156;2023-02-03T12:00:35;4.10;;;2.10;;
16979;SDS011;42288;52.182;21.156;2023-02-03T12:14:16;10.47;;;4.73;;
16979;SDS011;42288;52.182;21.156;2023-02-03T12:17:10;6.50;;;2.73;;
16979;SDS011;42288;52.182;21.156;2023-02-03T12:22:28;16.70;;;8.17;;
16979;SDS011;42288;52.182;21.156;2023-02-03T12:28:13;9.17;;;4.87;;
16979;SDS011;42288;52.182;21.156;2023-02-03T12:30:58;7.63;;;3.53;;
16979;SDS011;42288;52.182;21.156;2023-02-03T12:33:39;6.70;;;3.40;;
16979;SDS011;42288;52.182;21.156;2023-02-03T12:36:17;8.77;;;3.00;;
16979;SDS011;42288;52.182;21.156;2023-02-03T12:38:51;8.20;;;3.50;;
16979;SDS011;42288;52.182;21.156;2023-02-03T12:41:27;8.17;;;3.53;;
16979;SDS011;42288;52.182;21.156;2023-02-03T12:44:05;10.20;;;4.53;;
16979;SDS011;42288;52.182;21.156;2023-02-03T12:46:55;9.97;;;4.57;;
16979;SDS011;42288;52.182;21.156;2023-02-03T12:49:44;11.20;;;4.60;;
16979;SDS011;42288;52.182;21.156;2023-02-03T12:52:19;11.97;;;5.37;;
16979;SDS011;42288;52.182;21.156;2023-02-03T12:57:56;12.10;;;4.37;;
16979;SDS011;42288;52.182;21.156;2023-02-03T13:00:31;10.53;;;5.00;;
16979;SDS011;42288;52.182;21.156;2023-02-03T13:08:13;12.60;;;5.30;;
16979;SDS011;42288;52.182;21.156;2023-02-03T13:10:54;10.63;;;4.10;;
16979;SDS011;42288;52.182;21.156;2023-02-03T13:13:41;10.80;;;4.80;;
16979;SDS011;42288;52.182;21.156;2023-02-03T13:16:12;10.33;;;5.00;;
16979;SDS011;42288;52.182;21.156;2023-02-03T13:18:41;7.90;;;4.23;;
16979;SDS011;42288;52.182;21.156;2023-02-03T13:21:12;7.63;;;3.57;;
16979;SDS011;42288;52.182;21.156;2023-02-03T13:23:41;8.10;;;3.30;;
16979;SDS011;42288;52.182;21.156;2023-02-03T13:26:17;8.97;;;3.97;;
16979;SDS011;42288;52.182;21.156;2023-02-03T13:38:05;7.70;;;3.30;;
16979;SDS011;42288;52.182;21.156;2023-02-03T13:43:26;10.13;;;5.10;;
16979;SDS011;42288;52.182;21.156;2023-02-03T13:45:55;14.30;;;5.53;;
16979;SDS011;42288;52.182;21.156;2023-02-03T13:48:23;13.00;;;6.10;;
16979;SDS011;42288;52.182;21.156;2023-02-03T13:51:02;8.90;;;3.60;;
16979;SDS011;42288;52.182;21.156;2023-02-03T13:53:38;6.57;;;3.80;;
16979;SDS011;42288;52.182;21.156;2023-02-03T13:56:07;11.60;;;4.40;;
16979;SDS011;42288;52.182;21.156;2023-02-03T13:59:04;9.47;;;4.60;;
16979;SDS011;42288;52.182;21.156;2023-02-03T14:01:39;11.37;;;5.80;;
16979;SDS011;42288;52.182;21.156;2023-02-03T14:04:07;14.37;;;7.93;;
16979;SDS011;42288;52.182;21.156;2023-02-03T14:06:54;7.67;;;3.90;;
16979;SDS011;42288;52.182;21.156;2023-02-03T14:14:40;8.43;;;4.20;;
16979;SDS011;42288;52.182;21.156;2023-02-03T14:23:25;15.10;;;6.17;;
16979;SDS011;42288;52.182;21.156;2023-02-03T14:25:55;16.00;;;6.67;;
16979;SDS011;42288;52.182;21.156;2023-02-03T14:28:27;12.23;;;6.17;;
16979;SDS011;42288;52.182;21.156;2023-02-03T14:31:06;13.93;;;6.53;;
16979;SDS011;42288;52.182;21.156;2023-02-03T14:33:49;13.80;;;6.30;;
16979;SDS011;42288;52.182;21.156;2023-02-03T14:38:53;12.97;;;6.80;;
16979;SDS011;42288;52.182;21.156;2023-02-03T14:47:59;17.90;;;8.50;;
16979;SDS011;42288;52.182;21.156;2023-02-03T14:53:08;19.27;;;7.90;;
16979;SDS011;42288;52.182;21.156;2023-02-03T14:56:06;22.30;;;8.50;;
16979;SDS011;42288;52.182;21.156;2023-02-03T14:58:36;17.93;;;7.80;;
16979;SDS011;42288;52.182;21.156;2023-02-03T15:01:21;22.90;;;8.90;;
16979;SDS011;42288;52.182;21.156;2023-02-03T15:12:42;32.50;;;18.57;;
16979;SDS011;42288;52.182;21.156;2023-02-03T15:15:21;16.97;;;9.23;;
16979;SDS011;42288;52.182;21.156;2023-02-03T15:17:56;18.07;;;8.77;;
16979;SDS011;42288;52.182;21.156;2023-02-03T15:20:29;18.80;;;9.53;;
16979;SDS011;42288;52.182;21.156;2023-02-03T15:23:15;16.47;;;8.67;;
16979;SDS011;42288;52.182;21.156;2023-02-03T15:25:45;19.47;;;11.03;;
16979;SDS011;42288;52.182;21.156;2023-02-03T15:28:25;16.37;;;8.97;;
16979;SDS011;42288;52.182;21.156;2023-02-03T15:31:00;13.53;;;7.10;;
16979;SDS011;42288;52.182;21.156;2023-02-03T15:33:27;17.97;;;8.87;;
16979;SDS011;42288;52.182;21.156;2023-02-03T15:35:57;18.70;;;9.30;;
16979;SDS011;42288;52.182;21.156;2023-02-03T15:38:27;21.70;;;10.63;;
16979;SDS011;42288;52.182;21.156;2023-02-03T15:40:57;24.10;;;9.87;;
16979;SDS011;42288;52.182;21.156;2023-02-03T15:43:42;23.90;;;10.67;;
16979;SDS011;42288;52.182;21.156;2023-02-03T15:46:17;29.13;;;12.47;;
16979;SDS011;42288;52.182;21.156;2023-02-03T15:49:09;18.10;;;9.20;;
16979;SDS011;42288;52.182;21.156;2023-02-03T15:56:45;20.30;;;9.50;;
16979;SDS011;42288;52.182;21.156;2023-02-03T15:59:20;21.83;;;9.67;;
16979;SDS011;42288;52.182;21.156;2023-02-03T16:01:54;23.60;;;11.50;;
16979;SDS011;42288;52.182;21.156;2023-02-03T16:04:20;27.37;;;12.10;;
16979;SDS011;42288;52.182;21.156;2023-02-03T16:06:47;20.30;;;9.00;;
16979;SDS011;42288;52.182;21.156;2023-02-03T16:09:31;18.30;;;8.47;;
16979;SDS011;42288;52.182;21.156;2023-02-03T16:12:18;18.67;;;8.20;;
16979;SDS011;42288;52.182;21.156;2023-02-03T16:14:51;19.03;;;8.67;;
16979;SDS011;42288;52.182;21.156;2023-02-03T16:22:37;16.17;;;8.30;;
16979;SDS011;42288;52.182;21.156;2023-02-03T16:25:17;19.43;;;8.77;;
16979;SDS011;42288;52.182;21.156;2023-02-03T16:27:53;21.17;;;8.97;;
16979;SDS011;42288;52.182;21.156;2023-02-03T16:30:38;19.33;;;8.97;;
16979;SDS011;42288;52.182;21.156;2023-02-03T16:33:33;19.20;;;9.40;;
16979;SDS011;42288;52.182;21.156;2023-02-03T16:36:17;23.47;;;11.13;;
16979;SDS011;42288;52.182;21.156;2023-02-03T16:39:01;25.50;;;10.53;;
16979;SDS011;42288;52.182;21.156;2023-02-03T16:41:49;18.27;;;9.33;;
16979;SDS011;42288;52.182;21.156;2023-02-03T16:44:33;27.50;;;13.57;;
16979;SDS011;42288;52.182;21.156;2023-02-03T16:47:25;26.17;;;12.43;;
16979;SDS011;42288;52.182;21.156;2023-02-03T16:50:12;20.33;;;10.07;;
16979;SDS011;42288;52.182;21.156;2023-02-03T16:53:00;24.67;;;11.73;;
16979;SDS011;42288;52.182;21.156;2023-02-03T16:55:25;34.63;;;20.50;;
16979;SDS011;42288;52.182;21.156;2023-02-03T16:57:51;23.67;;;11.90;;
16979;SDS011;42288;52.182;21.156;2023-02-03T17:00:17;21.67;;;11.43;;